Farmington, UT (84025)

3:27 AM MDT on September 15, 2014 (GMT -0600)
KUTBOUNT14 | Change Station
CLOSE
Current Station
Personal Weather Station
Location: Rogo's Weather Station (EW2533): Bountiful Bench, UT
Elevation: 5114 ft
Nearby Weather Stations

Elev 5114 ft 40.90 °N, 111.85 °W | Updated 3 seconds ago

Mostly Cloudy
Mostly Cloudy
72.0 °F
Feels Like 77 °F
N
4.0
Wind Variable Wind from ENE
Gusts 13.0 mph

Today
High -- | Low -- °F
--% Chance of Precip.
Yesterday
High -- | Low -- °F
Precip. -- in
7:08 AM 7:36 PM
Waning Gibbous, 57% visible
Pressure 29.90 in
Visibility 10.0 miles
Clouds Mostly Cloudy 13000 ft
Mostly Cloudy 16000 ft
Heat Index 77 °F
Dew Point 42 °F
Humidity 34%
Rainfall 0.00 in
Snow Depth Not available.
UV 0 out of 12
Pollen 5.30 out of 12
Ozone Good
PM2.5 Good
Flu Activity Not available.
METAR KHIF 150858Z AUTO 11018KT 10SM BKN130 BKN160 19/04 A3007 RMK AO2 SLP124 T01850038 50003

More Conditions Fewer Conditions

Pressure 29.90 in
Visibility 10.0 miles
Clouds Mostly Cloudy 13000 ft
Mostly Cloudy 16000 ft
Heat Index 77 °F
Dew Point 42 °F
Humidity 34%
Rainfall 0.00 in
Snow Depth Not available.
UV 0 out of 12
Pollen 5.30 out of 12
Ozone Good
PM2.5 Good
Flu Activity Not available.
METAR KHIF 150858Z AUTO 11018KT 10SM BKN130 BKN160 19/04 A3007 RMK AO2 SLP124 T01850038 50003

More Conditions Fewer Conditions

10-Day Weather Forecast

Almanac

Astronomy

Sep. 15, 2014 Rise Set
Actual Time 7:08 AM MDT 7:36 PM MDT
Civil Twilight 6:40 AM MDT 8:03 PM MDT
Nautical Twilight 6:07 AM MDT 8:36 PM MDT
Astronomical Twilight 5:34 AM MDT 9:09 PM MDT
Moon No Moon Rise 2:14 PM MDT
Length of Visible Light 13h 23m
Length of Day
12h 28m
Tomorrow will be 2m 41s shorter.
Waning Gibbous, 57% of the Moon is Illuminated
Today
Waning Gibbous
Sep 15
Last Quarter
Sep 24
New
Oct 1
First Quarter
Oct 8
Full

Today's Extremes

State Highs State Lows

Community

WunderPhotos

Upload Photos

1,753,426 photos uploaded!

Nearby

Air Quality

  Air Quality AQ Index Pollutant
Yesterday Good
PM10
Yesterday Good
OZONE
Current Good
PM2.5
Current Good
OZONE
Monday Good
OZONE
Tuesday Good
OZONE

Snow Depth

Station Depth Elevation
Rock Creek 1 in 7900 ft
Ben Lomond Trail 1 in 6000 ft
King's Cabin 1 in 8730 ft
Gooseberry R.S. 1 in 7920 ft
Payson R.S. 0 in 8050 ft

Earthquake Activity

City Distance Mag. Time & Date
No recent earthquake activity has been reported nearby.
Minimum magnitude displayed is 2.5.

Coastal Water Temperatures

Place Temperature
No Stations Reporting

Nearby Weather Stations